Time;durP1;ratioP1;P1;durP2;ratioP2;P2;SDS_P1;SDS_P2;PMS_P1;PMS_P2;Temp;Humidity;BMP_temperature;BMP_pressure;BME280_temperature;BME280_humidity;BME280_pressure;Samples;Min_cycle;Max_cycle;Signal;HPM_P1;HPM_P2
2021/07/25 00:00:57;;;;;;;;;;;18.00;1.00;;;;;;4994513;28;20025;-65
2021/07/25 00:03:22;;;;;;;;;;;17.90;1.00;;;;;;4995230;28;20390;-65
2021/07/25 00:05:48;;;;;;;;;;;17.90;1.00;;;;;;4994742;28;19957;-66
2021/07/25 00:08:13;;;;;;;;;;;17.80;1.00;;;;;;4994247;28;20378;-65
2021/07/25 00:10:40;;;;;;;;;;;17.80;1.00;;;;;;4994585;28;19940;-65
2021/07/25 00:13:06;;;;;;;;;;;17.80;1.00;;;;;;4994835;28;19960;-66
2021/07/25 00:15:31;;;;;;;;;;;17.80;1.00;;;;;;4994247;28;19914;-66
2021/07/25 00:17:57;;;;;;;;;;;17.90;1.00;;;;;;4993977;28;19936;-65
2021/07/25 00:20:22;;;;;;;;;;;17.90;1.00;;;;;;4994590;28;19910;-65
2021/07/25 00:22:48;;;;;;;;;;;17.90;1.00;;;;;;4994735;28;20363;-65
2021/07/25 00:25:19;;;;;;;;;;;17.90;1.00;;;;;;4994431;28;19972;-66
2021/07/25 00:27:45;;;;;;;;;;;17.90;1.00;;;;;;4993972;28;19918;-65
2021/07/25 00:30:11;;;;;;;;;;;17.90;1.00;;;;;;4994206;28;20457;-65
2021/07/25 00:32:37;;;;;;;;;;;18.00;1.00;;;;;;4994869;28;20299;-65
2021/07/25 00:35:02;;;;;;;;;;;18.00;1.00;;;;;;4994321;28;19998;-64
2021/07/25 00:37:28;;;;;;;;;;;18.00;1.00;;;;;;4993864;28;19996;-65
2021/07/25 00:39:53;;;;;;;;;;;18.00;1.00;;;;;;4994019;28;19909;-65
2021/07/25 00:42:19;;;;;;;;;;;17.90;1.00;;;;;;4994395;28;19920;-65
2021/07/25 00:44:44;;;;;;;;;;;17.90;1.00;;;;;;4993870;28;20283;-65
2021/07/25 00:47:10;;;;;;;;;;;17.80;1.00;;;;;;4993893;28;19910;-66
2021/07/25 00:49:36;;;;;;;;;;;17.80;1.00;;;;;;4993567;28;19910;-66
2021/07/25 00:52:04;;;;;;;;;;;17.70;1.00;;;;;;4993967;28;19917;-65
2021/07/25 00:54:29;;;;;;;;;;;17.70;1.00;;;;;;4994215;28;20387;-65
2021/07/25 00:56:55;;;;;;;;;;;17.70;1.00;;;;;;4994118;28;20004;-66
2021/07/25 00:59:20;;;;;;;;;;;17.80;1.00;;;;;;4993322;28;20188;-66
2021/07/25 01:01:47;;;;;;;;;;;17.80;1.00;;;;;;4994287;28;19910;-65
2021/07/25 01:04:35;;;;;;;;;;;17.80;1.00;;;;;;4993989;28;19918;-65
2021/07/25 01:07:08;;;;;;;;;;;17.80;1.00;;;;;;4993713;28;19909;-65
2021/07/25 01:09:39;;;;;;;;;;;17.90;1.00;;;;;;4993215;28;19910;-65
2021/07/25 01:12:06;;;;;;;;;;;17.90;1.00;;;;;;4993753;28;19910;-66
2021/07/25 01:14:37;;;;;;;;;;;17.90;1.00;;;;;;4993458;28;20334;-66
2021/07/25 01:17:22;;;;;;;;;;;17.90;1.00;;;;;;4993814;28;20290;-66
2021/07/25 01:19:48;;;;;;;;;;;17.90;1.00;;;;;;4993940;28;20387;-65
2021/07/25 01:22:13;;;;;;;;;;;17.90;1.00;;;;;;4993492;28;19932;-65
2021/07/25 01:24:39;;;;;;;;;;;17.80;1.00;;;;;;4993550;28;19910;-66
2021/07/25 01:27:06;;;;;;;;;;;17.70;1.00;;;;;;4993509;28;19968;-65
2021/07/25 01:29:32;;;;;;;;;;;17.40;1.00;;;;;;4992479;28;19984;-66
2021/07/25 01:31:58;;;;;;;;;;;17.20;1.00;;;;;;4993635;28;20372;-65
2021/07/25 01:34:24;;;;;;;;;;;17.20;1.00;;;;;;4993352;28;19917;-66
2021/07/25 01:36:51;;;;;;;;;;;17.20;1.00;;;;;;4993448;28;20208;-66
2021/07/25 01:39:17;;;;;;;;;;;17.30;1.00;;;;;;4992645;28;19916;-66
2021/07/25 01:41:43;;;;;;;;;;;17.20;1.00;;;;;;4993246;28;19916;-66
2021/07/25 01:44:09;;;;;;;;;;;17.20;1.00;;;;;;4992735;28;19971;-65
2021/07/25 01:46:34;;;;;;;;;;;17.10;1.00;;;;;;4992671;28;19921;-66
2021/07/25 01:49:00;;;;;;;;;;;17.10;1.00;;;;;;4992427;28;20354;-66
2021/07/25 01:51:25;;;;;;;;;;;17.10;1.00;;;;;;4993084;28;19910;-66
2021/07/25 01:53:51;;;;;;;;;;;17.00;1.00;;;;;;4993212;28;19914;-65
2021/07/25 01:56:16;;;;;;;;;;;17.00;1.00;;;;;;4993364;28;19917;-64
2021/07/25 01:58:42;;;;;;;;;;;17.00;1.00;;;;;;4992283;28;20223;-65
2021/07/25 02:01:07;;;;;;;;;;;17.00;1.00;;;;;;4992647;28;19918;-64
2021/07/25 02:03:35;;;;;;;;;;;17.10;1.00;;;;;;4993273;28;19968;-65
2021/07/25 02:06:01;;;;;;;;;;;17.20;1.00;;;;;;4993042;28;20426;-65
2021/07/25 02:08:27;;;;;;;;;;;17.20;1.00;;;;;;4992110;28;19957;-66
2021/07/25 02:10:53;;;;;;;;;;;17.10;1.00;;;;;;4992689;28;20354;-66
2021/07/25 02:13:19;;;;;;;;;;;17.00;1.00;;;;;;4992680;28;20004;-65
2021/07/25 02:15:45;;;;;;;;;;;16.90;1.00;;;;;;4992560;28;19910;-66
2021/07/25 02:18:11;;;;;;;;;;;16.90;1.00;;;;;;4991245;28;20377;-65
2021/07/25 02:20:36;;;;;;;;;;;16.90;1.00;;;;;;4991783;28;19920;-65
2021/07/25 02:23:02;;;;;;;;;;;16.80;1.00;;;;;;4992649;28;19963;-65
2021/07/25 02:25:27;;;;;;;;;;;16.90;1.00;;;;;;4992081;28;20347;-66
2021/07/25 02:27:53;;;;;;;;;;;16.90;1.00;;;;;;4991638;28;19944;-65
2021/07/25 02:30:18;;;;;;;;;;;17.00;1.00;;;;;;4991989;28;19980;-65
2021/07/25 02:32:44;;;;;;;;;;;17.10;1.00;;;;;;4991927;28;19914;-65
2021/07/25 02:35:09;;;;;;;;;;;17.10;1.00;;;;;;4992325;28;19914;-65
2021/07/25 02:37:35;;;;;;;;;;;17.20;1.00;;;;;;4991544;28;20032;-65
2021/07/25 02:40:00;;;;;;;;;;;17.20;1.00;;;;;;4992006;28;19960;-65
2021/07/25 02:42:26;;;;;;;;;;;17.30;1.00;;;;;;4991901;28;19918;-66
2021/07/25 02:44:52;;;;;;;;;;;17.30;1.00;;;;;;4991149;28;19921;-65
2021/07/25 02:47:17;;;;;;;;;;;17.30;1.00;;;;;;4991384;28;19909;-65
2021/07/25 02:49:43;;;;;;;;;;;17.30;1.00;;;;;;4991710;28;19917;-65
2021/07/25 02:52:08;;;;;;;;;;;17.30;1.00;;;;;;4991831;28;19914;-66
2021/07/25 02:54:34;;;;;;;;;;;17.30;1.00;;;;;;4991783;28;19932;-65
2021/07/25 02:56:59;;;;;;;;;;;17.40;1.00;;;;;;4991355;28;20327;-65
2021/07/25 02:59:25;;;;;;;;;;;17.30;1.00;;;;;;4990332;28;20348;-65
2021/07/25 03:01:50;;;;;;;;;;;17.30;1.00;;;;;;4991746;28;19917;-66
2021/07/25 03:04:16;;;;;;;;;;;17.30;1.00;;;;;;4991679;28;20390;-65
2021/07/25 03:06:41;;;;;;;;;;;17.20;1.00;;;;;;4991612;28;19910;-66
2021/07/25 03:09:07;;;;;;;;;;;17.30;1.00;;;;;;4990510;28;19914;-66
2021/07/25 03:11:33;;;;;;;;;;;17.30;1.00;;;;;;4991361;28;19910;-66
2021/07/25 03:13:59;;;;;;;;;;;17.30;1.00;;;;;;4991111;28;19985;-66
2021/07/25 03:16:25;;;;;;;;;;;17.30;1.00;;;;;;4991608;28;19917;-65
2021/07/25 03:18:51;;;;;;;;;;;17.40;1.00;;;;;;4990771;28;19916;-66
2021/07/25 03:21:16;;;;;;;;;;;17.40;1.00;;;;;;4991141;28;19913;-65
2021/07/25 03:23:42;;;;;;;;;;;17.40;1.00;;;;;;4991375;28;19956;-66
2021/07/25 03:26:07;;;;;;;;;;;17.40;1.00;;;;;;4990999;28;19918;-66
2021/07/25 03:28:33;;;;;;;;;;;17.40;1.00;;;;;;4990667;28;19910;-66
2021/07/25 03:30:59;;;;;;;;;;;17.50;1.00;;;;;;4990772;28;20704;-66
2021/07/25 03:33:24;;;;;;;;;;;17.50;1.00;;;;;;4991295;28;19963;-66
2021/07/25 03:35:50;;;;;;;;;;;17.60;1.00;;;;;;4991156;28;19914;-66
2021/07/25 03:38:17;;;;;;;;;;;17.50;1.00;;;;;;4990962;28;20322;-66
2021/07/25 03:40:43;;;;;;;;;;;17.60;1.00;;;;;;4991156;28;19910;-66
2021/07/25 03:43:09;;;;;;;;;;;17.70;1.00;;;;;;4990925;28;19984;-66
2021/07/25 03:45:35;;;;;;;;;;;17.60;1.00;;;;;;4990679;28;19910;-65
2021/07/25 03:48:01;;;;;;;;;;;17.60;1.00;;;;;;4990651;28;20401;-65
2021/07/25 03:50:26;;;;;;;;;;;17.60;1.00;;;;;;4991235;28;19910;-65
2021/07/25 03:52:52;;;;;;;;;;;17.50;1.00;;;;;;4991411;28;19925;-65
2021/07/25 03:55:18;;;;;;;;;;;17.60;1.00;;;;;;4990827;28;19961;-66
2021/07/25 03:57:43;;;;;;;;;;;17.50;1.00;;;;;;4991044;28;20510;-65
2021/07/25 04:00:09;;;;;;;;;;;17.50;1.00;;;;;;4991075;28;19957;-65
2021/07/25 04:02:34;;;;;;;;;;;17.40;1.00;;;;;;4991311;28;19960;-65
2021/07/25 04:05:00;;;;;;;;;;;17.40;1.00;;;;;;4991313;28;19918;-65
2021/07/25 04:07:25;;;;;;;;;;;17.40;1.00;;;;;;4990451;28;19910;-65
2021/07/25 04:09:51;;;;;;;;;;;17.40;1.00;;;;;;4991243;28;19946;-67
2021/07/25 04:12:16;;;;;;;;;;;17.50;1.00;;;;;;4990920;28;20016;-66
2021/07/25 04:14:42;;;;;;;;;;;17.50;1.00;;;;;;4990678;28;19963;-66
2021/07/25 04:17:07;;;;;;;;;;;17.50;1.00;;;;;;4991038;28;20006;-67
2021/07/25 04:19:33;;;;;;;;;;;17.50;1.00;;;;;;4990210;28;19960;-66
2021/07/25 04:21:58;;;;;;;;;;;17.50;1.00;;;;;;4990869;28;19914;-66
2021/07/25 04:24:24;;;;;;;;;;;17.50;1.00;;;;;;4990743;28;19918;-67
2021/07/25 04:26:50;;;;;;;;;;;17.40;1.00;;;;;;4991207;28;20023;-66
2021/07/25 04:29:16;;;;;;;;;;;17.40;1.00;;;;;;4989967;28;19954;-66
2021/07/25 04:31:41;;;;;;;;;;;17.30;1.00;;;;;;4990539;28;19917;-66
2021/07/25 04:34:07;;;;;;;;;;;17.40;1.00;;;;;;4990766;28;19914;-65
2021/07/25 04:36:33;;;;;;;;;;;17.40;1.00;;;;;;4990858;28;20291;-67
2021/07/25 04:38:59;;;;;;;;;;;17.40;1.00;;;;;;4990132;28;19910;-66
2021/07/25 04:41:25;;;;;;;;;;;17.50;1.00;;;;;;4990450;28;19914;-66
2021/07/25 04:44:05;;;;;;;;;;;17.40;1.00;;;;;;4993575;28;19918;-67
2021/07/25 04:46:32;;;;;;;;;;;17.50;1.00;;;;;;4994160;28;19941;-66
2021/07/25 04:49:12;;;;;;;;;;;17.50;1.00;;;;;;4993290;28;19914;-67
2021/07/25 04:51:38;;;;;;;;;;;17.50;1.00;;;;;;4993965;28;20371;-66
2021/07/25 04:54:07;;;;;;;;;;;17.50;1.00;;;;;;4993798;28;20375;-66
2021/07/25 04:56:39;;;;;;;;;;;17.60;1.00;;;;;;4994121;28;20379;-67
2021/07/25 04:59:06;;;;;;;;;;;17.60;1.00;;;;;;4992827;28;19921;-66
2021/07/25 05:01:36;;;;;;;;;;;17.60;1.00;;;;;;4994022;28;19948;-66
2021/07/25 05:04:02;;;;;;;;;;;17.40;1.00;;;;;;4993819;28;20211;-66
2021/07/25 05:06:29;;;;;;;;;;;17.30;1.00;;;;;;4993660;28;19968;-65
2021/07/25 05:08:54;;;;;;;;;;;17.40;1.00;;;;;;4993101;28;19909;-66
2021/07/25 05:11:21;;;;;;;;;;;17.50;1.00;;;;;;4993768;28;20403;-66
2021/07/25 05:13:49;;;;;;;;;;;17.60;1.00;;;;;;4993860;28;19917;-65
2021/07/25 05:16:21;;;;;;;;;;;17.70;1.00;;;;;;4993281;28;20012;-66
2021/07/25 05:18:56;;;;;;;;;;;17.90;1.00;;;;;;4992801;28;19949;-66
2021/07/25 05:21:34;;;;;;;;;;;18.00;1.00;;;;;;4993522;28;19921;-66
2021/07/25 05:24:02;;;;;;;;;;;18.20;1.00;;;;;;4992988;28;20020;-65
2021/07/25 05:26:27;;;;;;;;;;;18.30;1.00;;;;;;4993342;28;19917;-66
2021/07/25 05:28:55;;;;;;;;;;;18.70;1.00;;;;;;4992397;28;19916;-66
2021/07/25 05:31:21;;;;;;;;;;;19.10;1.00;;;;;;4993067;28;19914;-66
2021/07/25 05:33:46;;;;;;;;;;;19.50;1.00;;;;;;4993376;28;19996;-67
2021/07/25 05:36:12;;;;;;;;;;;19.60;1.00;;;;;;4992661;28;20005;-67
2021/07/25 05:38:37;;;;;;;;;;;19.60;1.00;;;;;;4991194;28;19913;-67
2021/07/25 05:41:03;;;;;;;;;;;19.50;1.00;;;;;;4993056;28;19914;-66
2021/07/25 05:43:28;;;;;;;;;;;19.40;1.00;;;;;;4993156;28;20405;-67
2021/07/25 05:45:54;;;;;;;;;;;19.40;1.00;;;;;;4992427;28;19909;-66
2021/07/25 05:48:19;;;;;;;;;;;19.40;1.00;;;;;;4992100;28;19909;-66
2021/07/25 05:50:44;;;;;;;;;;;19.40;1.00;;;;;;4992898;28;19910;-67
2021/07/25 05:53:10;;;;;;;;;;;19.30;1.00;;;;;;4992872;28;19917;-67
2021/07/25 05:55:36;;;;;;;;;;;19.40;1.00;;;;;;4992825;28;20232;-67
2021/07/25 05:58:02;;;;;;;;;;;19.60;1.00;;;;;;4992156;28;19910;-66
2021/07/25 06:00:27;;;;;;;;;;;19.60;1.00;;;;;;4991864;28;19960;-67
2021/07/25 06:02:56;;;;;;;;;;;19.70;1.00;;;;;;4992568;28;20001;-67
2021/07/25 06:05:23;;;;;;;;;;;19.80;1.00;;;;;;4992817;28;19932;-67
2021/07/25 06:07:48;;;;;;;;;;;20.00;1.00;;;;;;4991955;28;19910;-67
2021/07/25 06:10:14;;;;;;;;;;;20.20;1.00;;;;;;4992387;28;20347;-67
2021/07/25 06:12:39;;;;;;;;;;;20.50;1.00;;;;;;4992166;28;19914;-66
2021/07/25 06:15:06;;;;;;;;;;;20.90;1.00;;;;;;4991966;28;19939;-67
2021/07/25 06:17:31;;;;;;;;;;;21.30;1.00;;;;;;4991936;28;19910;-67
2021/07/25 06:19:57;;;;;;;;;;;21.90;99.90;;;;;;4992359;28;19945;-67
2021/07/25 06:22:22;;;;;;;;;;;22.70;1.00;;;;;;4992386;28;20279;-67
2021/07/25 06:24:48;;;;;;;;;;;23.30;1.00;;;;;;4992246;28;19968;-66
2021/07/25 06:27:13;;;;;;;;;;;23.50;1.00;;;;;;4991899;28;19922;-67
2021/07/25 06:29:39;;;;;;;;;;;23.50;60.60;;;;;;4991142;28;19997;-67
2021/07/25 06:32:06;;;;;;;;;;;23.50;1.00;;;;;;4992621;28;19941;-67
2021/07/25 06:34:32;;;;;;;;;;;23.50;1.00;;;;;;4992061;28;19932;-66
2021/07/25 06:36:57;;;;;;;;;;;23.30;1.00;;;;;;4992153;28;19925;-67
2021/07/25 06:39:23;;;;;;;;;;;23.20;1.00;;;;;;4991578;28;19910;-67
2021/07/25 06:41:48;;;;;;;;;;;23.00;1.00;;;;;;4990768;28;20296;-67
2021/07/25 06:44:14;;;;;;;;;;;22.80;99.90;;;;;;4991582;28;19918;-67
2021/07/25 06:46:39;;;;;;;;;;;22.60;1.00;;;;;;4991958;28;20435;-67
2021/07/25 06:49:05;;;;;;;;;;;22.40;1.00;;;;;;4991374;28;19909;-67
2021/07/25 06:51:30;;;;;;;;;;;22.20;99.90;;;;;;4992029;28;19910;-66
2021/07/25 06:53:56;;;;;;;;;;;22.10;1.00;;;;;;4992079;28;19910;-67
2021/07/25 06:56:21;;;;;;;;;;;22.00;1.00;;;;;;4992119;28;19910;-67
2021/07/25 06:58:47;;;;;;;;;;;22.00;1.00;;;;;;4990867;28;19917;-66
2021/07/25 07:01:12;;;;;;;;;;;21.90;1.00;;;;;;4991450;28;19956;-67
2021/07/25 07:03:38;;;;;;;;;;;21.80;1.00;;;;;;4991978;28;20391;-65
2021/07/25 07:06:07;;;;;;;;;;;21.80;1.00;;;;;;4991107;28;19910;-67
2021/07/25 07:08:33;;;;;;;;;;;21.80;1.00;;;;;;4990853;28;19910;-67
2021/07/25 07:10:58;;;;;;;;;;;21.70;1.00;;;;;;4991281;28;19916;-67
2021/07/25 07:13:24;;;;;;;;;;;21.60;1.00;;;;;;4991574;28;19914;-66
2021/07/25 07:15:49;;;;;;;;;;;21.50;1.00;;;;;;4991192;28;19914;-66
2021/07/25 07:18:15;;;;;;;;;;;21.50;1.00;;;;;;4990845;28;19917;-66
2021/07/25 07:20:41;;;;;;;;;;;21.40;1.00;;;;;;4991419;28;20377;-66
2021/07/25 07:23:08;;;;;;;;;;;21.30;1.00;;;;;;4991149;28;19913;-65
2021/07/25 07:25:35;;;;;;;;;;;21.30;99.90;;;;;;4991192;28;19936;-65
2021/07/25 07:28:01;;;;;;;;;;;21.30;99.90;;;;;;4990586;28;19980;-65
2021/07/25 07:30:27;;;;;;;;;;;21.10;99.90;;;;;;4991141;28;20285;-65
2021/07/25 07:32:52;;;;;;;;;;;21.10;99.90;;;;;;4991388;28;19913;-64
2021/07/25 07:35:21;;;;;;;;;;;21.10;99.90;;;;;;4990853;28;19910;-65
2021/07/25 07:37:49;;;;;;;;;;;21.20;99.90;;;;;;4990664;28;19960;-65
2021/07/25 07:40:14;;;;;;;;;;;21.30;99.90;;;;;;4991083;28;19941;-65
2021/07/25 07:42:40;;;;;;;;;;;21.20;99.90;;;;;;4991071;28;19917;-65
2021/07/25 07:45:06;;;;;;;;;;;21.30;99.90;;;;;;4990251;28;19910;-65
2021/07/25 07:47:31;;;;;;;;;;;21.50;99.90;;;;;;4990552;28;20013;-67
2021/07/25 07:49:57;;;;;;;;;;;22.20;1.00;;;;;;4991080;28;20287;-65
2021/07/25 07:52:22;;;;;;;;;;;22.90;52.20;;;;;;4991140;28;19940;-67
2021/07/25 07:54:48;;;;;;;;;;;23.70;1.00;;;;;;4991167;28;19937;-66
2021/07/25 07:57:13;;;;;;;;;;;24.40;1.00;;;;;;4990329;28;19913;-67
2021/07/25 07:59:39;;;;;;;;;;;25.20;99.90;;;;;;4990554;28;20240;-67
2021/07/25 08:02:04;;;;;;;;;;;27.10;1.00;;;;;;4991044;28;19917;-65
2021/07/25 08:04:30;;;;;;;;;;;29.10;1.00;;;;;;4990803;28;20294;-65
2021/07/25 08:06:55;;;;;;;;;;;30.80;99.90;;;;;;4990957;28;19910;-65
2021/07/25 08:09:21;;;;;;;;;;;32.20;99.90;;;;;;4989932;28;19910;-66
2021/07/25 08:11:46;;;;;;;;;;;34.40;99.90;;;;;;4990703;28;19982;-66
2021/07/25 08:14:16;;;;;;;;;;;36.00;99.90;;;;;;4990418;28;19914;-66
2021/07/25 08:16:42;;;;;;;;;;;37.20;99.90;;;;;;4991235;28;19917;-66
2021/07/25 08:19:08;;;;;;;;;;;38.10;99.90;;;;;;4993597;28;20287;-67
2021/07/25 08:21:33;;;;;;;;;;;39.20;99.90;;;;;;4994177;28;19910;-67
2021/07/25 08:23:59;;;;;;;;;;;40.30;99.90;;;;;;4994394;28;19924;-67
2021/07/25 08:26:24;;;;;;;;;;;40.60;99.90;;;;;;4994265;28;19917;-65
2021/07/25 08:28:50;;;;;;;;;;;39.70;99.90;;;;;;4993812;28;19910;-66
2021/07/25 08:31:15;;;;;;;;;;;38.60;99.90;;;;;;4994261;28;19916;-67
2021/07/25 08:33:41;;;;;;;;;;;38.40;99.90;;;;;;4994106;28;19914;-66
2021/07/25 08:36:06;;;;;;;;;;;38.10;99.90;;;;;;4994045;28;20339;-67
2021/07/25 08:38:32;;;;;;;;;;;37.30;99.90;;;;;;4993788;28;19998;-67
2021/07/25 08:41:06;;;;;;;;;;;36.00;99.90;;;;;;4994187;28;19910;-67
2021/07/25 08:43:36;;;;;;;;;;;35.10;99.90;;;;;;4994008;28;20334;-66
2021/07/25 08:46:04;;;;;;;;;;;34.50;99.90;;;;;;4993540;28;19945;-66
2021/07/25 08:48:31;;;;;;;;;;;34.00;99.90;;;;;;4993230;28;19968;-66
2021/07/25 08:50:59;;;;;;;;;;;33.40;99.90;;;;;;4993899;28;19957;-66
2021/07/25 08:53:26;;;;;;;;;;;32.40;99.90;;;;;;4993957;28;20410;-66
2021/07/25 08:55:52;;;;;;;;;;;31.40;99.90;;;;;;4993652;28;20001;-66
2021/07/25 08:58:21;;;;;;;;;;;30.40;99.90;;;;;;4993224;28;19910;-66
2021/07/25 09:00:49;;;;;;;;;;;29.80;99.90;;;;;;4993883;28;20209;-66
2021/07/25 09:03:15;;;;;;;;;;;29.10;99.90;;;;;;4994031;28;19918;-66
2021/07/25 09:05:41;;;;;;;;;;;29.00;99.90;;;;;;4993598;28;20281;-66
2021/07/25 09:08:07;;;;;;;;;;;29.40;99.90;;;;;;4993340;28;19914;-66
2021/07/25 09:10:33;;;;;;;;;;;29.80;99.90;;;;;;4994340;28;19978;-66
2021/07/25 09:12:58;;;;;;;;;;;30.10;99.90;;;;;;4993837;28;19957;-66
2021/07/25 09:15:26;;;;;;;;;;;30.00;99.90;;;;;;4993181;28;20406;-66
2021/07/25 09:17:52;;;;;;;;;;;29.80;99.90;;;;;;4992910;28;19922;-65
2021/07/25 09:20:17;;;;;;;;;;;29.40;99.90;;;;;;4994003;28;19921;-66
2021/07/25 09:22:49;;;;;;;;;;;29.30;99.90;;;;;;4992231;28;19918;-66
2021/07/25 09:25:20;;;;;;;;;;;29.40;99.90;;;;;;4993603;28;19996;-66
2021/07/25 09:28:05;;;;;;;;;;;30.00;99.90;;;;;;4992420;28;20363;-66
2021/07/25 09:30:31;;;;;;;;;;;31.10;99.90;;;;;;4993314;28;19910;-66
2021/07/25 09:32:57;;;;;;;;;;;31.80;99.90;;;;;;4993942;28;20363;-67
2021/07/25 09:35:23;;;;;;;;;;;32.00;99.90;;;;;;4993179;28;19964;-66
2021/07/25 09:37:51;;;;;;;;;;;32.00;99.90;;;;;;4992873;28;19914;-66
2021/07/25 09:40:23;;;;;;;;;;;32.90;99.90;;;;;;4993242;28;19937;-67
2021/07/25 09:42:48;;;;;;;;;;;33.60;99.90;;;;;;4993402;28;19960;-65
2021/07/25 09:45:14;;;;;;;;;;;33.90;99.90;;;;;;4992765;28;19953;-65
2021/07/25 09:47:42;;;;;;;;;;;33.80;99.90;;;;;;4991153;28;20320;-65
2021/07/25 09:50:08;;;;;;;;;;;32.80;99.90;;;;;;4992915;28;19917;-65
2021/07/25 09:52:33;;;;;;;;;;;31.90;99.90;;;;;;4993286;28;19910;-65
2021/07/25 09:54:59;;;;;;;;;;;31.40;99.90;;;;;;4993281;28;19914;-65
2021/07/25 09:57:25;;;;;;;;;;;31.00;99.90;;;;;;4992680;28;19925;-66
2021/07/25 09:59:52;;;;;;;;;;;30.90;99.90;;;;;;4992516;28;19910;-66
2021/07/25 10:02:33;;;;;;;;;;;30.90;99.90;;;;;;4992798;28;20004;-66
2021/07/25 10:05:07;;;;;;;;;;;30.00;99.90;;;;;;4992990;28;20288;-66
2021/07/25 10:07:34;;;;;;;;;;;29.70;99.90;;;;;;4992309;28;19910;-66
2021/07/25 10:10:02;;;;;;;;;;;29.40;99.90;;;;;;4992674;28;19914;-66
2021/07/25 10:12:31;;;;;;;;;;;28.90;99.90;;;;;;4992591;28;19914;-66
2021/07/25 10:14:58;;;;;;;;;;;28.40;99.90;;;;;;4990894;28;20346;-66
2021/07/25 10:17:24;;;;;;;;;;;27.60;99.90;;;;;;4992103;28;19917;-66
2021/07/25 10:19:50;;;;;;;;;;;26.80;99.90;;;;;;4992682;28;19972;-67
2021/07/25 10:22:16;;;;;;;;;;;26.80;99.90;;;;;;4992323;28;19918;-65
2021/07/25 10:24:45;;;;;;;;;;;26.10;99.90;;;;;;4992564;28;19910;-66
2021/07/25 10:27:15;;;;;;;;;;;26.20;99.90;;;;;;5006625;23;19926;-62
2021/07/25 10:29:40;;;;;;;;;;;26.40;99.90;;;;;;4992196;28;19917;-64
2021/07/25 10:32:06;;;;;;;;;;;26.60;99.90;;;;;;4992593;28;20282;-63
2021/07/25 10:34:33;;;;;;;;;;;26.80;99.90;;;;;;4992416;28;19909;-61
2021/07/25 10:37:01;;;;;;;;;;;26.70;99.90;;;;;;4992205;28;20127;-63
2021/07/25 10:39:27;;;;;;;;;;;26.70;99.90;;;;;;4991422;28;19913;-63
2021/07/25 10:41:54;;;;;;;;;;;27.00;99.90;;;;;;4992555;28;19920;-63
2021/07/25 10:44:20;;;;;;;;;;;27.10;99.90;;;;;;4992099;28;20002;-63
2021/07/25 10:46:46;;;;;;;;;;;27.30;99.90;;;;;;4992367;28;19932;-63
2021/07/25 10:49:11;;;;;;;;;;;27.30;99.90;;;;;;4992284;28;19956;-63
2021/07/25 10:51:54;;;;;;;;;;;27.30;99.90;;;;;;4992810;28;19942;-62
2021/07/25 10:54:19;;;;;;;;;;;27.00;99.90;;;;;;4992570;28;19949;-62
2021/07/25 10:57:03;;;;;;;;;;;26.90;99.90;;;;;;4992114;28;20314;-62
2021/07/25 10:59:58;;;;;;;;;;;26.60;99.90;;;;;;4991726;28;19910;-62
2021/07/25 11:02:28;;;;;;;;;;;25.80;99.90;;;;;;4979249;28;20282;-63
2021/07/25 11:04:53;;;;;;;;;;;25.50;99.90;;;;;;4992501;28;19910;-62
2021/07/25 11:07:22;;;;;;;;;;;25.40;99.90;;;;;;4992206;28;19914;-63
2021/07/25 11:09:59;;;;;;;;;;;25.50;99.90;;;;;;4991765;28;20004;-63
2021/07/25 11:12:26;;;;;;;;;;;25.60;99.90;;;;;;4992387;28;19910;-63
2021/07/25 11:14:55;;;;;;;;;;;25.60;99.90;;;;;;4991677;28;19924;-63
2021/07/25 11:17:39;;;;;;;;;;;25.40;99.90;;;;;;4991566;28;19910;-63
2021/07/25 11:20:04;;;;;;;;;;;25.50;99.90;;;;;;4992359;28;19910;-62
2021/07/25 11:22:43;;;;;;;;;;;25.70;99.90;;;;;;4992301;28;19917;-62
2021/07/25 11:25:08;;;;;;;;;;;25.80;99.90;;;;;;4992190;28;20055;-62
2021/07/25 11:27:46;;;;;;;;;;;26.00;99.90;;;;;;4991118;28;19918;-63
2021/07/25 11:30:12;;;;;;;;;;;26.20;99.90;;;;;;4991553;28;19913;-62
2021/07/25 11:32:37;;;;;;;;;;;26.30;99.90;;;;;;4991951;28;20268;-62
2021/07/25 11:35:04;;;;;;;;;;;26.30;99.90;;;;;;4991478;28;19910;-62
2021/07/25 11:37:39;;;;;;;;;;;26.40;99.90;;;;;;4991552;28;19971;-63
2021/07/25 11:40:09;;;;;;;;;;;26.70;99.90;;;;;;4991675;28;20355;-63
2021/07/25 11:42:35;;;;;;;;;;;27.00;99.90;;;;;;4992082;28;20001;-63
2021/07/25 11:45:01;;;;;;;;;;;27.30;99.90;;;;;;4991611;28;19921;-63
2021/07/25 11:47:27;;;;;;;;;;;27.50;99.90;;;;;;4991434;28;19914;-63
2021/07/25 11:49:53;;;;;;;;;;;27.70;99.90;;;;;;4991883;28;20369;-63
2021/07/25 11:52:18;;;;;;;;;;;27.90;99.90;;;;;;4995061;28;19930;-63
2021/07/25 11:54:44;;;;;;;;;;;27.70;99.90;;;;;;4995586;28;19910;-62
2021/07/25 11:57:13;;;;;;;;;;;27.50;99.90;;;;;;4995839;28;19920;-63
2021/07/25 11:59:44;;;;;;;;;;;27.40;99.90;;;;;;4995496;28;20374;-62
2021/07/25 12:02:10;;;;;;;;;;;27.10;99.90;;;;;;4995781;28;19964;-63
2021/07/25 12:04:42;;;;;;;;;;;26.90;99.90;;;;;;4995678;28;19957;-63
2021/07/25 12:07:12;;;;;;;;;;;26.80;99.90;;;;;;4995393;28;19910;-63
2021/07/25 12:09:38;;;;;;;;;;;26.70;99.90;;;;;;4995366;28;19910;-62
2021/07/25 12:12:09;;;;;;;;;;;26.70;99.90;;;;;;4995558;28;19910;-63
2021/07/25 12:14:37;;;;;;;;;;;26.70;99.90;;;;;;4995030;28;20347;-62
2021/07/25 12:17:03;;;;;;;;;;;26.80;99.90;;;;;;4995145;28;19932;-62
2021/07/25 12:19:32;;;;;;;;;;;26.80;99.90;;;;;;4994501;28;19910;-62
2021/07/25 12:22:05;;;;;;;;;;;26.80;99.90;;;;;;4995067;28;20009;-62
2021/07/25 12:24:39;;;;;;;;;;;26.70;99.90;;;;;;4995040;28;19926;-61
2021/07/25 12:27:05;;;;;;;;;;;26.30;99.90;;;;;;4994609;28;20319;-62
2021/07/25 12:29:48;;;;;;;;;;;26.00;99.90;;;;;;4993822;28;20328;-60
2021/07/25 12:32:23;;;;;;;;;;;25.80;99.90;;;;;;4995040;28;19921;-60
2021/07/25 12:34:50;;;;;;;;;;;25.60;99.90;;;;;;4995251;28;20363;-62
2021/07/25 12:37:24;;;;;;;;;;;25.30;99.90;;;;;;4994450;28;19964;-63
2021/07/25 12:40:06;;;;;;;;;;;25.20;99.90;;;;;;4995048;28;19929;-63
2021/07/25 12:42:35;;;;;;;;;;;25.00;99.90;;;;;;4995011;28;19910;-62
2021/07/25 12:45:19;;;;;;;;;;;24.80;99.90;;;;;;4994642;28;19932;-62
2021/07/25 12:47:45;;;;;;;;;;;24.80;99.90;;;;;;4994355;28;19917;-62
2021/07/25 12:50:10;;;;;;;;;;;24.70;99.90;;;;;;4994708;28;20271;-60
2021/07/25 12:52:36;;;;;;;;;;;24.80;99.90;;;;;;4994802;28;19910;-62
2021/07/25 12:55:01;;;;;;;;;;;24.90;99.90;;;;;;4994790;28;19910;-62
2021/07/25 12:57:26;;;;;;;;;;;24.90;99.90;;;;;;4994111;28;19920;-62
2021/07/25 12:59:52;;;;;;;;;;;25.00;99.90;;;;;;4994120;28;19937;-62
2021/07/25 13:05:01;;;;;;;;;;;25.00;99.90;;;;;;4994222;28;19971;-62
2021/07/25 13:07:27;;;;;;;;;;;25.00;99.90;;;;;;4993607;28;19913;-62
2021/07/25 13:09:52;;;;;;;;;;;25.00;99.90;;;;;;4994310;28;19913;-62
2021/07/25 13:12:18;;;;;;;;;;;25.00;99.90;;;;;;4994487;28;19964;-62
2021/07/25 13:14:43;;;;;;;;;;;24.80;99.90;;;;;;4993869;28;20008;-62
2021/07/25 13:17:09;;;;;;;;;;;24.70;99.90;;;;;;4994472;28;20386;-62
2021/07/25 13:19:34;;;;;;;;;;;24.60;99.90;;;;;;4993507;28;19964;-62
2021/07/25 13:22:00;;;;;;;;;;;24.70;99.90;;;;;;4994253;28;19910;-61
2021/07/25 13:24:25;;;;;;;;;;;24.80;99.90;;;;;;4994154;28;19921;-62
2021/07/25 13:26:51;;;;;;;;;;;24.90;99.90;;;;;;4993914;28;19922;-63
2021/07/25 13:29:17;;;;;;;;;;;25.10;99.90;;;;;;4993068;28;20383;-63
2021/07/25 13:31:42;;;;;;;;;;;25.30;99.90;;;;;;4993730;28;19956;-63
2021/07/25 13:34:08;;;;;;;;;;;25.50;99.90;;;;;;4994205;28;20008;-62
2021/07/25 13:36:34;;;;;;;;;;;25.60;99.90;;;;;;4993844;28;20351;-61
2021/07/25 13:38:59;;;;;;;;;;;25.60;99.90;;;;;;4992772;28;20029;-62
2021/07/25 13:41:25;;;;;;;;;;;25.60;99.90;;;;;;4993566;28;19910;-61
2021/07/25 13:43:51;;;;;;;;;;;25.50;99.90;;;;;;4993333;28;19937;-62
2021/07/25 13:46:19;;;;;;;;;;;25.40;99.90;;;;;;4993481;28;19914;-62
2021/07/25 13:48:45;;;;;;;;;;;25.30;99.90;;;;;;4993128;28;19973;-62
2021/07/25 13:51:12;;;;;;;;;;;25.30;99.90;;;;;;4992394;28;19913;-63
2021/07/25 13:53:38;;;;;;;;;;;25.30;99.90;;;;;;4993183;28;19957;-62
2021/07/25 13:56:04;;;;;;;;;;;25.20;99.90;;;;;;4992792;28;19910;-64
2021/07/25 13:58:30;;;;;;;;;;;25.10;1.00;;;;;;4992426;28;20321;-64
2021/07/25 14:00:55;;;;;;;;;;;25.10;1.00;;;;;;4992599;28;19948;-62
2021/07/25 14:03:21;;;;;;;;;;;25.10;1.00;;;;;;4993117;28;19968;-63
2021/07/25 14:05:46;;;;;;;;;;;25.10;1.00;;;;;;4992705;28;19932;-63
2021/07/25 14:08:12;;;;;;;;;;;25.10;1.00;;;;;;4992086;28;19933;-62
2021/07/25 14:10:37;;;;;;;;;;;25.10;99.90;;;;;;4993127;28;19917;-63
2021/07/25 14:13:03;;;;;;;;;;;25.10;99.90;;;;;;4993022;28;19941;-63
2021/07/25 14:15:28;;;;;;;;;;;25.00;99.90;;;;;;4992628;28;19968;-62
2021/07/25 14:17:54;;;;;;;;;;;25.00;99.90;;;;;;4991749;28;20362;-62
2021/07/25 14:20:20;;;;;;;;;;;25.00;99.90;;;;;;4993006;28;20370;-63
2021/07/25 14:22:45;;;;;;;;;;;24.90;99.90;;;;;;4992720;28;19924;-62
2021/07/25 14:25:11;;;;;;;;;;;24.70;99.90;;;;;;4992668;28;19984;-63